sensor_id;sensor_type;location;lat;lon;timestamp;temperature;humidity
21214;DHT22;10764;50.850;2.904;2022-10-26T00:00:49;22.70;61.20
21214;DHT22;10764;50.850;2.904;2022-10-26T00:03:16;21.40;60.40
21214;DHT22;10764;50.850;2.904;2022-10-26T00:05:44;21.30;60.60
21214;DHT22;10764;50.850;2.904;2022-10-26T00:10:38;21.40;59.40
21214;DHT22;10764;50.850;2.904;2022-10-26T00:13:07;21.40;59.40
21214;DHT22;10764;50.850;2.904;2022-10-26T00:15:39;25.40;62.70
21214;DHT22;10764;50.850;2.904;2022-10-26T00:18:05;21.30;59.30
21214;DHT22;10764;50.850;2.904;2022-10-26T00:20:32;21.40;59.40
21214;DHT22;10764;50.850;2.904;2022-10-26T00:22:59;21.30;59.30
21214;DHT22;10764;50.850;2.904;2022-10-26T00:25:26;21.30;59.30
21214;DHT22;10764;50.850;2.904;2022-10-26T00:27:53;21.50;59.40
21214;DHT22;10764;50.850;2.904;2022-10-26T00:30:19;21.30;59.30
21214;DHT22;10764;50.850;2.904;2022-10-26T00:32:46;21.30;59.30
21214;DHT22;10764;50.850;2.904;2022-10-26T00:37:55;21.30;59.30
21214;DHT22;10764;50.850;2.904;2022-10-26T00:40:26;21.40;59.40
21214;DHT22;10764;50.850;2.904;2022-10-26T00:42:53;21.50;60.10
21214;DHT22;10764;50.850;2.904;2022-10-26T00:45:28;21.30;59.30
21214;DHT22;10764;50.850;2.904;2022-10-26T00:48:07;21.30;59.30
21214;DHT22;10764;50.850;2.904;2022-10-26T00:50:40;22.20;60.50
21214;DHT22;10764;50.850;2.904;2022-10-26T00:53:10;22.40;60.60
21214;DHT22;10764;50.850;2.904;2022-10-26T00:55:41;21.30;59.40
21214;DHT22;10764;50.850;2.904;2022-10-26T00:58:10;21.30;59.30
21214;DHT22;10764;50.850;2.904;2022-10-26T01:00:38;21.20;59.30
21214;DHT22;10764;50.850;2.904;2022-10-26T01:03:07;21.20;59.20
21214;DHT22;10764;50.850;2.904;2022-10-26T01:05:37;23.20;61.10
21214;DHT22;10764;50.850;2.904;2022-10-26T01:08:06;21.30;59.30
21214;DHT22;10764;50.850;2.904;2022-10-26T01:10:35;21.20;59.20
21214;DHT22;10764;50.850;2.904;2022-10-26T01:13:03;22.70;60.80
21214;DHT22;10764;50.850;2.904;2022-10-26T01:20:54;21.70;60.50
21214;DHT22;10764;50.850;2.904;2022-10-26T01:23:31;21.30;59.70
21214;DHT22;10764;50.850;2.904;2022-10-26T01:32:05;21.30;59.30
21214;DHT22;10764;50.850;2.904;2022-10-26T01:34:42;22.10;60.30
21214;DHT22;10764;50.850;2.904;2022-10-26T01:37:14;21.30;59.70
21214;DHT22;10764;50.850;2.904;2022-10-26T01:39:48;21.10;59.80
21214;DHT22;10764;50.850;2.904;2022-10-26T01:42:20;22.40;60.50
21214;DHT22;10764;50.850;2.904;2022-10-26T01:44:53;21.80;60.20
21214;DHT22;10764;50.850;2.904;2022-10-26T01:47:23;25.10;62.40
21214;DHT22;10764;50.850;2.904;2022-10-26T01:49:54;21.30;59.30
21214;DHT22;10764;50.850;2.904;2022-10-26T01:52:22;21.30;59.30
21214;DHT22;10764;50.850;2.904;2022-10-26T01:54:49;21.40;59.30
21214;DHT22;10764;50.850;2.904;2022-10-26T01:57:18;23.30;61.70
21214;DHT22;10764;50.850;2.904;2022-10-26T02:02:51;21.60;59.40
21214;DHT22;10764;50.850;2.904;2022-10-26T02:10:47;21.20;59.20
21214;DHT22;10764;50.850;2.904;2022-10-26T02:15:54;21.30;59.30
21214;DHT22;10764;50.850;2.904;2022-10-26T02:18:50;22.40;60.50
21214;DHT22;10764;50.850;2.904;2022-10-26T02:21:23;21.30;59.80
21214;DHT22;10764;50.850;2.904;2022-10-26T02:23:52;22.70;60.90
21214;DHT22;10764;50.850;2.904;2022-10-26T02:26:23;21.40;59.30
21214;DHT22;10764;50.850;2.904;2022-10-26T02:28:54;24.50;62.00
21214;DHT22;10764;50.850;2.904;2022-10-26T02:31:23;21.30;59.30
21214;DHT22;10764;50.850;2.904;2022-10-26T02:33:52;22.70;60.80
21214;DHT22;10764;50.850;2.904;2022-10-26T02:36:24;25.40;62.60
21214;DHT22;10764;50.850;2.904;2022-10-26T02:38:53;21.00;59.80
21214;DHT22;10764;50.850;2.904;2022-10-26T02:41:23;24.60;61.90
21214;DHT22;10764;50.850;2.904;2022-10-26T02:44:06;21.30;59.30
21214;DHT22;10764;50.850;2.904;2022-10-26T02:46:34;21.30;59.70
21214;DHT22;10764;50.850;2.904;2022-10-26T02:49:01;21.30;59.30
21214;DHT22;10764;50.850;2.904;2022-10-26T02:51:44;21.30;59.30
21214;DHT22;10764;50.850;2.904;2022-10-26T02:54:26;21.30;59.70
21214;DHT22;10764;50.850;2.904;2022-10-26T02:57:09;24.30;61.70
21214;DHT22;10764;50.850;2.904;2022-10-26T02:59:41;21.20;59.20
21214;DHT22;10764;50.850;2.904;2022-10-26T03:02:08;21.30;59.30
21214;DHT22;10764;50.850;2.904;2022-10-26T03:04:36;21.30;59.90
21214;DHT22;10764;50.850;2.904;2022-10-26T03:07:03;22.20;60.50
21214;DHT22;10764;50.850;2.904;2022-10-26T03:09:30;21.10;59.10
21214;DHT22;10764;50.850;2.904;2022-10-26T03:11:57;21.30;59.30
21214;DHT22;10764;50.850;2.904;2022-10-26T03:14:23;22.60;61.00
21214;DHT22;10764;50.850;2.904;2022-10-26T03:16:50;21.20;59.20
21214;DHT22;10764;50.850;2.904;2022-10-26T03:21:49;21.20;59.40
21214;DHT22;10764;50.850;2.904;2022-10-26T03:24:16;21.30;59.20
21214;DHT22;10764;50.850;2.904;2022-10-26T03:26:42;21.30;59.30
21214;DHT22;10764;50.850;2.904;2022-10-26T03:29:09;21.30;59.20
21214;DHT22;10764;50.850;2.904;2022-10-26T03:34:03;21.20;59.20
21214;DHT22;10764;50.850;2.904;2022-10-26T03:36:30;22.50;61.20
21214;DHT22;10764;50.850;2.904;2022-10-26T03:38:57;21.80;60.70
21214;DHT22;10764;50.850;2.904;2022-10-26T03:41:23;21.30;60.60
21214;DHT22;10764;50.850;2.904;2022-10-26T03:43:50;24.10;62.10
21214;DHT22;10764;50.850;2.904;2022-10-26T03:46:17;21.20;59.20
21214;DHT22;10764;50.850;2.904;2022-10-26T03:48:44;21.20;59.20
21214;DHT22;10764;50.850;2.904;2022-10-26T03:51:10;21.30;59.30
21214;DHT22;10764;50.850;2.904;2022-10-26T03:53:37;21.30;59.20
21214;DHT22;10764;50.850;2.904;2022-10-26T03:56:04;21.20;59.20
21214;DHT22;10764;50.850;2.904;2022-10-26T03:58:31;21.20;59.20
21214;DHT22;10764;50.850;2.904;2022-10-26T04:00:58;20.90;60.10
21214;DHT22;10764;50.850;2.904;2022-10-26T04:03:25;21.20;59.20
21214;DHT22;10764;50.850;2.904;2022-10-26T04:05:51;21.40;59.30
21214;DHT22;10764;50.850;2.904;2022-10-26T04:08:18;25.00;62.90
21214;DHT22;10764;50.850;2.904;2022-10-26T04:10:45;21.20;59.20
21214;DHT22;10764;50.850;2.904;2022-10-26T04:13:12;21.30;59.30
21214;DHT22;10764;50.850;2.904;2022-10-26T04:15:39;21.30;59.30
21214;DHT22;10764;50.850;2.904;2022-10-26T04:18:08;21.70;60.70
21214;DHT22;10764;50.850;2.904;2022-10-26T04:20:34;25.30;63.10
21214;DHT22;10764;50.850;2.904;2022-10-26T04:23:04;23.90;61.90
21214;DHT22;10764;50.850;2.904;2022-10-26T04:25:32;21.20;59.20
21214;DHT22;10764;50.850;2.904;2022-10-26T04:28:00;21.30;60.40
21214;DHT22;10764;50.850;2.904;2022-10-26T04:30:27;22.00;60.30
21214;DHT22;10764;50.850;2.904;2022-10-26T04:35:21;21.30;59.30
21214;DHT22;10764;50.850;2.904;2022-10-26T04:37:48;21.40;60.70
21214;DHT22;10764;50.850;2.904;2022-10-26T04:40:15;22.70;61.20
21214;DHT22;10764;50.850;2.904;2022-10-26T04:42:46;21.30;59.30
21214;DHT22;10764;50.850;2.904;2022-10-26T04:45:15;21.10;59.10
21214;DHT22;10764;50.850;2.904;2022-10-26T04:47:42;21.20;60.40
21214;DHT22;10764;50.850;2.904;2022-10-26T04:50:10;21.20;59.20
21214;DHT22;10764;50.850;2.904;2022-10-26T04:55:06;21.30;59.20
21214;DHT22;10764;50.850;2.904;2022-10-26T04:57:34;21.20;60.40
21214;DHT22;10764;50.850;2.904;2022-10-26T05:00:01;21.30;59.20
21214;DHT22;10764;50.850;2.904;2022-10-26T05:02:28;21.20;59.20
21214;DHT22;10764;50.850;2.904;2022-10-26T05:07:23;21.20;59.20
21214;DHT22;10764;50.850;2.904;2022-10-26T05:12:17;21.10;59.10
21214;DHT22;10764;50.850;2.904;2022-10-26T05:14:43;21.20;59.20
21214;DHT22;10764;50.850;2.904;2022-10-26T05:17:10;21.20;59.20
21214;DHT22;10764;50.850;2.904;2022-10-26T05:22:04;21.20;59.20
21214;DHT22;10764;50.850;2.904;2022-10-26T05:24:31;23.60;61.80
21214;DHT22;10764;50.850;2.904;2022-10-26T05:26:58;21.20;59.20
21214;DHT22;10764;50.850;2.904;2022-10-26T05:29:25;21.40;59.30
21214;DHT22;10764;50.850;2.904;2022-10-26T05:31:52;21.20;59.20
21214;DHT22;10764;50.850;2.904;2022-10-26T05:36:46;21.20;59.20
21214;DHT22;10764;50.850;2.904;2022-10-26T05:41:39;21.20;59.20
21214;DHT22;10764;50.850;2.904;2022-10-26T05:44:06;21.20;59.20
21214;DHT22;10764;50.850;2.904;2022-10-26T05:46:33;21.50;59.30
21214;DHT22;10764;50.850;2.904;2022-10-26T05:48:59;21.20;59.20
21214;DHT22;10764;50.850;2.904;2022-10-26T05:51:26;21.10;59.20
21214;DHT22;10764;50.850;2.904;2022-10-26T05:53:53;21.20;59.20
21214;DHT22;10764;50.850;2.904;2022-10-26T05:56:37;21.20;59.20
21214;DHT22;10764;50.850;2.904;2022-10-26T05:59:10;21.20;59.60
21214;DHT22;10764;50.850;2.904;2022-10-26T06:01:59;21.20;59.30
21214;DHT22;10764;50.850;2.904;2022-10-26T06:04:44;21.20;59.30
21214;DHT22;10764;50.850;2.904;2022-10-26T06:07:16;21.20;59.60
21214;DHT22;10764;50.850;2.904;2022-10-26T06:09:44;21.10;59.80
21214;DHT22;10764;50.850;2.904;2022-10-26T06:12:12;21.20;59.30
21214;DHT22;10764;50.850;2.904;2022-10-26T06:14:45;21.20;59.30
21214;DHT22;10764;50.850;2.904;2022-10-26T06:17:36;21.20;59.10
21214;DHT22;10764;50.850;2.904;2022-10-26T06:31:10;21.20;59.30
21214;DHT22;10764;50.850;2.904;2022-10-26T06:36:23;21.20;59.30
21214;DHT22;10764;50.850;2.904;2022-10-26T06:39:00;21.20;59.40
21214;DHT22;10764;50.850;2.904;2022-10-26T06:41:27;21.20;59.40
21214;DHT22;10764;50.850;2.904;2022-10-26T06:43:56;21.20;59.40
21214;DHT22;10764;50.850;2.904;2022-10-26T06:46:35;21.20;59.40
21214;DHT22;10764;50.850;2.904;2022-10-26T06:49:50;21.10;59.40
21214;DHT22;10764;50.850;2.904;2022-10-26T06:52:43;21.20;59.40
21214;DHT22;10764;50.850;2.904;2022-10-26T06:55:15;21.20;59.40
21214;DHT22;10764;50.850;2.904;2022-10-26T07:02:40;21.30;59.50
21214;DHT22;10764;50.850;2.904;2022-10-26T07:05:08;21.10;59.60
21214;DHT22;10764;50.850;2.904;2022-10-26T07:07:47;21.20;59.50
21214;DHT22;10764;50.850;2.904;2022-10-26T07:10:15;21.30;59.50
21214;DHT22;10764;50.850;2.904;2022-10-26T07:12:42;21.20;59.50
21214;DHT22;10764;50.850;2.904;2022-10-26T07:15:09;21.10;59.40
21214;DHT22;10764;50.850;2.904;2022-10-26T07:17:43;21.30;59.50
21214;DHT22;10764;50.850;2.904;2022-10-26T07:22:39;21.20;59.50
21214;DHT22;10764;50.850;2.904;2022-10-26T07:25:06;21.20;59.60
21214;DHT22;10764;50.850;2.904;2022-10-26T07:27:33;21.30;59.70
21214;DHT22;10764;50.850;2.904;2022-10-26T07:32:28;21.30;59.70
21214;DHT22;10764;50.850;2.904;2022-10-26T07:34:55;21.20;59.70
21214;DHT22;10764;50.850;2.904;2022-10-26T07:37:22;21.20;59.80
21214;DHT22;10764;50.850;2.904;2022-10-26T07:42:16;21.30;60.10
21214;DHT22;10764;50.850;2.904;2022-10-26T09:20:11;21.40;74.80
21214;DHT22;10764;50.850;2.904;2022-10-26T09:38:12;21.40;75.00
21214;DHT22;10764;50.850;2.904;2022-10-26T09:43:22;21.40;74.80
21214;DHT22;10764;50.850;2.904;2022-10-26T11:43:38;21.50;69.90
21214;DHT22;10764;50.850;2.904;2022-10-26T12:06:53;21.60;75.80
21214;DHT22;10764;50.850;2.904;2022-10-26T13:00:05;21.50;75.90
21214;DHT22;10764;50.850;2.904;2022-10-26T14:28:56;21.70;76.90
